sensor_id;sensor_type;location;lat;lon;timestamp;P1;durP1;ratioP1;P2;durP2;ratioP2
29906;SDS011;16776;50.958;10.994;2024-01-16T00:00:20;1.95;;;0.80;;
29906;SDS011;16776;50.958;10.994;2024-01-16T00:02:48;0.80;;;0.80;;
29906;SDS011;16776;50.958;10.994;2024-01-16T00:05:14;1.20;;;0.82;;
29906;SDS011;16776;50.958;10.994;2024-01-16T00:07:41;3.08;;;0.90;;
29906;SDS011;16776;50.958;10.994;2024-01-16T00:10:08;0.60;;;0.60;;
29906;SDS011;16776;50.958;10.994;2024-01-16T00:12:36;1.08;;;0.98;;
29906;SDS011;16776;50.958;10.994;2024-01-16T00:15:02;1.55;;;0.80;;
29906;SDS011;16776;50.958;10.994;2024-01-16T00:17:30;0.70;;;0.70;;
29906;SDS011;16776;50.958;10.994;2024-01-16T00:19:58;0.57;;;0.57;;
29906;SDS011;16776;50.958;10.994;2024-01-16T00:22:26;1.05;;;0.60;;
29906;SDS011;16776;50.958;10.994;2024-01-16T00:24:52;2.67;;;1.20;;
29906;SDS011;16776;50.958;10.994;2024-01-16T00:27:19;1.23;;;0.80;;
29906;SDS011;16776;50.958;10.994;2024-01-16T00:29:45;3.90;;;1.00;;
29906;SDS011;16776;50.958;10.994;2024-01-16T00:32:12;1.13;;;1.02;;
29906;SDS011;16776;50.958;10.994;2024-01-16T00:34:41;1.38;;;1.27;;
29906;SDS011;16776;50.958;10.994;2024-01-16T00:37:09;1.15;;;0.70;;
29906;SDS011;16776;50.958;10.994;2024-01-16T00:39:36;2.15;;;0.75;;
29906;SDS011;16776;50.958;10.994;2024-01-16T00:42:03;1.60;;;1.13;;
29906;SDS011;16776;50.958;10.994;2024-01-16T00:44:30;1.13;;;0.98;;
29906;SDS011;16776;50.958;10.994;2024-01-16T00:46:57;0.90;;;0.75;;
29906;SDS011;16776;50.958;10.994;2024-01-16T00:49:26;2.15;;;1.00;;
29906;SDS011;16776;50.958;10.994;2024-01-16T00:51:53;1.52;;;1.10;;
29906;SDS011;16776;50.958;10.994;2024-01-16T00:54:21;1.73;;;1.13;;
29906;SDS011;16776;50.958;10.994;2024-01-16T00:56:47;4.03;;;1.38;;
29906;SDS011;16776;50.958;10.994;2024-01-16T00:59:14;1.33;;;1.23;;
29906;SDS011;16776;50.958;10.994;2024-01-16T01:01:40;1.50;;;0.80;;
29906;SDS011;16776;50.958;10.994;2024-01-16T01:04:07;2.20;;;1.40;;
29906;SDS011;16776;50.958;10.994;2024-01-16T01:06:35;1.88;;;0.88;;
29906;SDS011;16776;50.958;10.994;2024-01-16T01:09:01;1.10;;;1.00;;
29906;SDS011;16776;50.958;10.994;2024-01-16T01:11:30;1.00;;;0.70;;
29906;SDS011;16776;50.958;10.994;2024-01-16T01:13:56;1.45;;;0.95;;
29906;SDS011;16776;50.958;10.994;2024-01-16T01:16:23;2.03;;;1.10;;
29906;SDS011;16776;50.958;10.994;2024-01-16T01:18:50;1.13;;;1.02;;
29906;SDS011;16776;50.958;10.994;2024-01-16T01:21:16;2.03;;;0.80;;
29906;SDS011;16776;50.958;10.994;2024-01-16T01:23:43;1.95;;;0.70;;
29906;SDS011;16776;50.958;10.994;2024-01-16T01:26:09;2.17;;;1.25;;
29906;SDS011;16776;50.958;10.994;2024-01-16T01:28:40;3.08;;;0.90;;
29906;SDS011;16776;50.958;10.994;2024-01-16T01:31:08;2.58;;;1.17;;
29906;SDS011;16776;50.958;10.994;2024-01-16T01:33:34;1.05;;;0.93;;
29906;SDS011;16776;50.958;10.994;2024-01-16T01:36:01;1.15;;;0.90;;
29906;SDS011;16776;50.958;10.994;2024-01-16T01:38:28;3.33;;;1.00;;
29906;SDS011;16776;50.958;10.994;2024-01-16T01:40:54;1.95;;;0.88;;
29906;SDS011;16776;50.958;10.994;2024-01-16T01:43:23;1.63;;;1.40;;
29906;SDS011;16776;50.958;10.994;2024-01-16T01:45:56;1.33;;;0.90;;
29906;SDS011;16776;50.958;10.994;2024-01-16T01:48:34;0.98;;;0.95;;
29906;SDS011;16776;50.958;10.994;2024-01-16T01:51:02;0.80;;;0.80;;
29906;SDS011;16776;50.958;10.994;2024-01-16T01:53:29;0.95;;;0.80;;
29906;SDS011;16776;50.958;10.994;2024-01-16T01:55:57;1.48;;;0.82;;
29906;SDS011;16776;50.958;10.994;2024-01-16T01:58:23;3.35;;;1.40;;
29906;SDS011;16776;50.958;10.994;2024-01-16T02:00:50;1.05;;;0.98;;
29906;SDS011;16776;50.958;10.994;2024-01-16T02:03:18;3.97;;;1.10;;
29906;SDS011;16776;50.958;10.994;2024-01-16T02:05:46;2.53;;;0.80;;
29906;SDS011;16776;50.958;10.994;2024-01-16T02:08:13;0.60;;;0.60;;
29906;SDS011;16776;50.958;10.994;2024-01-16T02:10:39;1.35;;;0.80;;
29906;SDS011;16776;50.958;10.994;2024-01-16T02:13:11;1.92;;;1.33;;
29906;SDS011;16776;50.958;10.994;2024-01-16T02:15:38;1.40;;;0.80;;
29906;SDS011;16776;50.958;10.994;2024-01-16T02:18:06;1.15;;;0.75;;
29906;SDS011;16776;50.958;10.994;2024-01-16T02:20:34;1.08;;;0.80;;
29906;SDS011;16776;50.958;10.994;2024-01-16T02:23:03;1.20;;;0.80;;
29906;SDS011;16776;50.958;10.994;2024-01-16T02:25:31;0.82;;;0.70;;
29906;SDS011;16776;50.958;10.994;2024-01-16T02:27:59;0.60;;;0.60;;
29906;SDS011;16776;50.958;10.994;2024-01-16T02:30:25;0.82;;;0.65;;
29906;SDS011;16776;50.958;10.994;2024-01-16T02:32:52;1.63;;;0.65;;
29906;SDS011;16776;50.958;10.994;2024-01-16T02:35:18;0.82;;;0.70;;
29906;SDS011;16776;50.958;10.994;2024-01-16T02:37:45;2.95;;;0.93;;
29906;SDS011;16776;50.958;10.994;2024-01-16T02:40:11;2.33;;;0.95;;
29906;SDS011;16776;50.958;10.994;2024-01-16T02:42:39;2.35;;;0.70;;
29906;SDS011;16776;50.958;10.994;2024-01-16T02:45:07;2.65;;;1.08;;
29906;SDS011;16776;50.958;10.994;2024-01-16T02:47:34;1.42;;;0.60;;
29906;SDS011;16776;50.958;10.994;2024-01-16T02:50:00;1.08;;;0.95;;
29906;SDS011;16776;50.958;10.994;2024-01-16T02:52:27;1.80;;;0.90;;
29906;SDS011;16776;50.958;10.994;2024-01-16T02:54:54;1.08;;;0.98;;
29906;SDS011;16776;50.958;10.994;2024-01-16T02:57:20;1.88;;;1.00;;
29906;SDS011;16776;50.958;10.994;2024-01-16T02:59:48;2.53;;;1.00;;
29906;SDS011;16776;50.958;10.994;2024-01-16T03:02:15;2.22;;;1.00;;
29906;SDS011;16776;50.958;10.994;2024-01-16T03:04:42;1.33;;;1.00;;
29906;SDS011;16776;50.958;10.994;2024-01-16T03:07:08;1.15;;;0.77;;
29906;SDS011;16776;50.958;10.994;2024-01-16T03:09:35;1.60;;;0.90;;
29906;SDS011;16776;50.958;10.994;2024-01-16T03:12:02;2.42;;;1.15;;
29906;SDS011;16776;50.958;10.994;2024-01-16T03:14:29;2.88;;;0.85;;
29906;SDS011;16776;50.958;10.994;2024-01-16T03:17:01;0.80;;;0.80;;
29906;SDS011;16776;50.958;10.994;2024-01-16T03:19:27;1.10;;;0.75;;
29906;SDS011;16776;50.958;10.994;2024-01-16T03:21:54;1.60;;;0.85;;
29906;SDS011;16776;50.958;10.994;2024-01-16T03:24:20;1.05;;;0.70;;
29906;SDS011;16776;50.958;10.994;2024-01-16T03:26:47;1.27;;;0.98;;
29906;SDS011;16776;50.958;10.994;2024-01-16T03:29:13;2.25;;;0.80;;
29906;SDS011;16776;50.958;10.994;2024-01-16T03:31:41;1.45;;;0.75;;
29906;SDS011;16776;50.958;10.994;2024-01-16T03:34:09;2.38;;;1.00;;
29906;SDS011;16776;50.958;10.994;2024-01-16T03:36:35;1.75;;;1.08;;
29906;SDS011;16776;50.958;10.994;2024-01-16T03:39:02;4.00;;;1.00;;
29906;SDS011;16776;50.958;10.994;2024-01-16T03:41:30;1.08;;;0.70;;
29906;SDS011;16776;50.958;10.994;2024-01-16T03:43:57;1.27;;;0.73;;
29906;SDS011;16776;50.958;10.994;2024-01-16T03:46:23;3.38;;;1.00;;
29906;SDS011;16776;50.958;10.994;2024-01-16T03:48:50;0.80;;;0.80;;
29906;SDS011;16776;50.958;10.994;2024-01-16T03:51:18;1.05;;;0.70;;
29906;SDS011;16776;50.958;10.994;2024-01-16T03:53:44;1.73;;;0.88;;
29906;SDS011;16776;50.958;10.994;2024-01-16T03:56:11;0.95;;;0.70;;
29906;SDS011;16776;50.958;10.994;2024-01-16T03:58:39;0.98;;;0.65;;
29906;SDS011;16776;50.958;10.994;2024-01-16T04:01:06;1.70;;;0.80;;
29906;SDS011;16776;50.958;10.994;2024-01-16T04:03:33;1.95;;;0.95;;
29906;SDS011;16776;50.958;10.994;2024-01-16T04:06:00;1.02;;;0.60;;
29906;SDS011;16776;50.958;10.994;2024-01-16T04:08:28;1.05;;;0.77;;
29906;SDS011;16776;50.958;10.994;2024-01-16T04:10:54;1.25;;;0.82;;
29906;SDS011;16776;50.958;10.994;2024-01-16T04:13:21;0.70;;;0.70;;
29906;SDS011;16776;50.958;10.994;2024-01-16T04:15:47;2.28;;;1.00;;
29906;SDS011;16776;50.958;10.994;2024-01-16T04:18:14;1.80;;;1.20;;
29906;SDS011;16776;50.958;10.994;2024-01-16T04:20:40;2.85;;;1.00;;
29906;SDS011;16776;50.958;10.994;2024-01-16T04:23:07;2.90;;;1.02;;
29906;SDS011;16776;50.958;10.994;2024-01-16T04:25:35;1.10;;;0.82;;
29906;SDS011;16776;50.958;10.994;2024-01-16T04:28:02;1.58;;;1.10;;
29906;SDS011;16776;50.958;10.994;2024-01-16T04:30:29;5.00;;;1.00;;
29906;SDS011;16776;50.958;10.994;2024-01-16T04:32:55;2.50;;;0.60;;
29906;SDS011;16776;50.958;10.994;2024-01-16T04:35:22;1.00;;;0.90;;
29906;SDS011;16776;50.958;10.994;2024-01-16T04:37:48;0.98;;;0.80;;
29906;SDS011;16776;50.958;10.994;2024-01-16T04:40:15;1.17;;;0.70;;
29906;SDS011;16776;50.958;10.994;2024-01-16T04:42:43;1.33;;;0.70;;
29906;SDS011;16776;50.958;10.994;2024-01-16T04:45:09;0.93;;;0.70;;
29906;SDS011;16776;50.958;10.994;2024-01-16T04:47:36;1.13;;;0.63;;
29906;SDS011;16776;50.958;10.994;2024-01-16T04:50:03;0.60;;;0.60;;
29906;SDS011;16776;50.958;10.994;2024-01-16T04:52:30;0.88;;;0.65;;
29906;SDS011;16776;50.958;10.994;2024-01-16T04:54:56;2.80;;;0.88;;
29906;SDS011;16776;50.958;10.994;2024-01-16T04:57:23;0.70;;;0.70;;
29906;SDS011;16776;50.958;10.994;2024-01-16T04:59:51;1.23;;;1.05;;
29906;SDS011;16776;50.958;10.994;2024-01-16T05:02:17;2.15;;;0.90;;
29906;SDS011;16776;50.958;10.994;2024-01-16T05:04:44;1.30;;;0.70;;
29906;SDS011;16776;50.958;10.994;2024-01-16T05:07:14;1.98;;;0.75;;
29906;SDS011;16776;50.958;10.994;2024-01-16T05:09:41;1.65;;;0.77;;
29906;SDS011;16776;50.958;10.994;2024-01-16T05:12:07;1.00;;;0.90;;
29906;SDS011;16776;50.958;10.994;2024-01-16T05:14:34;1.23;;;1.00;;
29906;SDS011;16776;50.958;10.994;2024-01-16T05:17:02;1.23;;;0.90;;
29906;SDS011;16776;50.958;10.994;2024-01-16T05:19:29;1.63;;;0.70;;
29906;SDS011;16776;50.958;10.994;2024-01-16T05:21:55;0.80;;;0.70;;
29906;SDS011;16776;50.958;10.994;2024-01-16T05:24:22;0.93;;;0.63;;
29906;SDS011;16776;50.958;10.994;2024-01-16T05:26:48;2.35;;;1.02;;
29906;SDS011;16776;50.958;10.994;2024-01-16T05:29:15;1.13;;;0.93;;
29906;SDS011;16776;50.958;10.994;2024-01-16T05:31:43;1.40;;;0.77;;
29906;SDS011;16776;50.958;10.994;2024-01-16T05:34:11;0.80;;;0.80;;
29906;SDS011;16776;50.958;10.994;2024-01-16T05:36:37;1.35;;;1.13;;
29906;SDS011;16776;50.958;10.994;2024-01-16T05:39:04;1.50;;;1.15;;
29906;SDS011;16776;50.958;10.994;2024-01-16T05:41:32;1.15;;;0.95;;
29906;SDS011;16776;50.958;10.994;2024-01-16T05:43:59;0.65;;;0.60;;
29906;SDS011;16776;50.958;10.994;2024-01-16T05:46:28;1.50;;;0.90;;
29906;SDS011;16776;50.958;10.994;2024-01-16T05:48:55;1.45;;;1.10;;
29906;SDS011;16776;50.958;10.994;2024-01-16T05:51:22;1.90;;;0.80;;
29906;SDS011;16776;50.958;10.994;2024-01-16T05:53:49;1.13;;;0.98;;
29906;SDS011;16776;50.958;10.994;2024-01-16T05:56:16;1.20;;;1.00;;
29906;SDS011;16776;50.958;10.994;2024-01-16T05:58:42;1.48;;;0.80;;
29906;SDS011;16776;50.958;10.994;2024-01-16T06:01:09;1.77;;;1.00;;
29906;SDS011;16776;50.958;10.994;2024-01-16T06:03:38;2.17;;;1.17;;
29906;SDS011;16776;50.958;10.994;2024-01-16T06:06:04;1.65;;;0.98;;
29906;SDS011;16776;50.958;10.994;2024-01-16T06:08:33;3.60;;;0.90;;
29906;SDS011;16776;50.958;10.994;2024-01-16T06:11:00;3.03;;;1.08;;
29906;SDS011;16776;50.958;10.994;2024-01-16T06:13:26;2.53;;;1.15;;
29906;SDS011;16776;50.958;10.994;2024-01-16T06:15:55;1.83;;;0.90;;
29906;SDS011;16776;50.958;10.994;2024-01-16T06:18:21;1.88;;;1.20;;
29906;SDS011;16776;50.958;10.994;2024-01-16T06:20:48;1.90;;;1.00;;
29906;SDS011;16776;50.958;10.994;2024-01-16T06:23:15;1.00;;;0.70;;
29906;SDS011;16776;50.958;10.994;2024-01-16T06:25:42;0.85;;;0.65;;
29906;SDS011;16776;50.958;10.994;2024-01-16T06:28:09;2.05;;;0.70;;
29906;SDS011;16776;50.958;10.994;2024-01-16T06:30:36;0.70;;;0.60;;
29906;SDS011;16776;50.958;10.994;2024-01-16T06:33:03;0.55;;;0.55;;
29906;SDS011;16776;50.958;10.994;2024-01-16T06:35:30;0.82;;;0.68;;
29906;SDS011;16776;50.958;10.994;2024-01-16T06:37:56;1.52;;;0.98;;
29906;SDS011;16776;50.958;10.994;2024-01-16T06:40:23;2.13;;;0.80;;
29906;SDS011;16776;50.958;10.994;2024-01-16T06:42:51;1.45;;;1.33;;
29906;SDS011;16776;50.958;10.994;2024-01-16T06:45:17;1.50;;;1.17;;
29906;SDS011;16776;50.958;10.994;2024-01-16T06:47:44;1.98;;;0.80;;
29906;SDS011;16776;50.958;10.994;2024-01-16T06:50:11;0.98;;;0.70;;
29906;SDS011;16776;50.958;10.994;2024-01-16T06:52:37;1.52;;;0.82;;
29906;SDS011;16776;50.958;10.994;2024-01-16T06:55:04;2.25;;;0.98;;
29906;SDS011;16776;50.958;10.994;2024-01-16T06:57:31;1.40;;;1.05;;
29906;SDS011;16776;50.958;10.994;2024-01-16T06:59:59;1.08;;;0.73;;
29906;SDS011;16776;50.958;10.994;2024-01-16T07:02:25;1.40;;;0.77;;
29906;SDS011;16776;50.958;10.994;2024-01-16T07:04:52;0.80;;;0.80;;
29906;SDS011;16776;50.958;10.994;2024-01-16T07:07:19;1.17;;;0.95;;
29906;SDS011;16776;50.958;10.994;2024-01-16T07:09:45;0.68;;;0.52;;
29906;SDS011;16776;50.958;10.994;2024-01-16T07:12:12;2.25;;;1.48;;
29906;SDS011;16776;50.958;10.994;2024-01-16T07:14:38;3.15;;;0.77;;
29906;SDS011;16776;50.958;10.994;2024-01-16T07:17:06;1.35;;;1.00;;
29906;SDS011;16776;50.958;10.994;2024-01-16T07:19:33;2.20;;;0.90;;
29906;SDS011;16776;50.958;10.994;2024-01-16T07:22:00;1.58;;;1.10;;
29906;SDS011;16776;50.958;10.994;2024-01-16T07:24:26;1.27;;;0.93;;
29906;SDS011;16776;50.958;10.994;2024-01-16T07:26:53;1.48;;;0.90;;
29906;SDS011;16776;50.958;10.994;2024-01-16T07:29:20;1.45;;;1.27;;
29906;SDS011;16776;50.958;10.994;2024-01-16T07:31:46;1.40;;;0.88;;
29906;SDS011;16776;50.958;10.994;2024-01-16T07:34:14;1.33;;;0.80;;
29906;SDS011;16776;50.958;10.994;2024-01-16T07:36:46;1.13;;;1.00;;
29906;SDS011;16776;50.958;10.994;2024-01-16T07:39:12;1.95;;;1.13;;
29906;SDS011;16776;50.958;10.994;2024-01-16T07:41:39;3.20;;;1.50;;
29906;SDS011;16776;50.958;10.994;2024-01-16T07:44:06;0.98;;;0.98;;
29906;SDS011;16776;50.958;10.994;2024-01-16T07:46:32;2.92;;;1.15;;
29906;SDS011;16776;50.958;10.994;2024-01-16T07:48:59;0.73;;;0.65;;
29906;SDS011;16776;50.958;10.994;2024-01-16T07:51:27;2.25;;;0.90;;
29906;SDS011;16776;50.958;10.994;2024-01-16T07:54:04;0.98;;;0.73;;
29906;SDS011;16776;50.958;10.994;2024-01-16T07:56:32;1.45;;;0.88;;
29906;SDS011;16776;50.958;10.994;2024-01-16T07:58:59;1.23;;;0.70;;
29906;SDS011;16776;50.958;10.994;2024-01-16T08:01:26;1.92;;;0.90;;
29906;SDS011;16776;50.958;10.994;2024-01-16T08:03:53;0.60;;;0.60;;
29906;SDS011;16776;50.958;10.994;2024-01-16T08:06:20;1.48;;;0.85;;
29906;SDS011;16776;50.958;10.994;2024-01-16T08:08:48;1.45;;;0.65;;
29906;SDS011;16776;50.958;10.994;2024-01-16T08:11:15;2.10;;;0.70;;
29906;SDS011;16776;50.958;10.994;2024-01-16T08:13:41;1.95;;;0.85;;
29906;SDS011;16776;50.958;10.994;2024-01-16T08:16:09;2.50;;;0.90;;
29906;SDS011;16776;50.958;10.994;2024-01-16T08:18:35;1.92;;;0.95;;
29906;SDS011;16776;50.958;10.994;2024-01-16T08:21:02;1.90;;;0.75;;
29906;SDS011;16776;50.958;10.994;2024-01-16T08:23:29;0.98;;;0.85;;
29906;SDS011;16776;50.958;10.994;2024-01-16T08:25:57;1.48;;;0.70;;
29906;SDS011;16776;50.958;10.994;2024-01-16T08:28:24;1.20;;;0.80;;
29906;SDS011;16776;50.958;10.994;2024-01-16T08:30:51;0.85;;;0.57;;
29906;SDS011;16776;50.958;10.994;2024-01-16T08:33:17;0.85;;;0.70;;
29906;SDS011;16776;50.958;10.994;2024-01-16T08:35:44;2.38;;;0.70;;
29906;SDS011;16776;50.958;10.994;2024-01-16T08:38:10;1.65;;;0.90;;
29906;SDS011;16776;50.958;10.994;2024-01-16T08:40:37;0.60;;;0.60;;
29906;SDS011;16776;50.958;10.994;2024-01-16T08:43:06;1.95;;;0.70;;
29906;SDS011;16776;50.958;10.994;2024-01-16T08:45:33;2.47;;;0.75;;
29906;SDS011;16776;50.958;10.994;2024-01-16T08:47:59;0.88;;;0.70;;
29906;SDS011;16776;50.958;10.994;2024-01-16T08:50:26;3.80;;;0.80;;
29906;SDS011;16776;50.958;10.994;2024-01-16T08:52:52;2.22;;;1.10;;
29906;SDS011;16776;50.958;10.994;2024-01-16T08:55:19;0.70;;;0.70;;
29906;SDS011;16776;50.958;10.994;2024-01-16T08:57:45;2.20;;;1.10;;
29906;SDS011;16776;50.958;10.994;2024-01-16T09:00:14;1.48;;;0.88;;
29906;SDS011;16776;50.958;10.994;2024-01-16T09:02:41;3.85;;;1.00;;
29906;SDS011;16776;50.958;10.994;2024-01-16T09:05:08;3.13;;;1.10;;
29906;SDS011;16776;50.958;10.994;2024-01-16T09:07:34;0.70;;;0.60;;
29906;SDS011;16776;50.958;10.994;2024-01-16T09:10:01;1.50;;;0.73;;
29906;SDS011;16776;50.958;10.994;2024-01-16T09:12:27;1.15;;;0.80;;
29906;SDS011;16776;50.958;10.994;2024-01-16T09:14:54;1.15;;;0.70;;
29906;SDS011;16776;50.958;10.994;2024-01-16T09:17:22;0.68;;;0.68;;
29906;SDS011;16776;50.958;10.994;2024-01-16T09:19:48;1.40;;;0.80;;
29906;SDS011;16776;50.958;10.994;2024-01-16T09:22:15;1.85;;;0.63;;
29906;SDS011;16776;50.958;10.994;2024-01-16T09:24:42;1.58;;;0.98;;
29906;SDS011;16776;50.958;10.994;2024-01-16T09:27:08;1.75;;;0.65;;
29906;SDS011;16776;50.958;10.994;2024-01-16T09:29:35;1.23;;;0.68;;
29906;SDS011;16776;50.958;10.994;2024-01-16T09:32:03;0.90;;;0.90;;
29906;SDS011;16776;50.958;10.994;2024-01-16T09:34:32;1.13;;;0.70;;
29906;SDS011;16776;50.958;10.994;2024-01-16T09:36:58;0.80;;;0.60;;
29906;SDS011;16776;50.958;10.994;2024-01-16T09:39:27;2.65;;;1.05;;
29906;SDS011;16776;50.958;10.994;2024-01-16T09:41:55;1.95;;;0.90;;
29906;SDS011;16776;50.958;10.994;2024-01-16T09:44:25;1.30;;;0.95;;
29906;SDS011;16776;50.958;10.994;2024-01-16T09:46:53;2.42;;;0.95;;
29906;SDS011;16776;50.958;10.994;2024-01-16T09:49:21;2.40;;;1.10;;
29906;SDS011;16776;50.958;10.994;2024-01-16T09:51:50;1.65;;;1.20;;
29906;SDS011;16776;50.958;10.994;2024-01-16T09:54:17;1.38;;;1.20;;
29906;SDS011;16776;50.958;10.994;2024-01-16T09:56:44;1.17;;;1.08;;
29906;SDS011;16776;50.958;10.994;2024-01-16T09:59:12;1.80;;;1.70;;
29906;SDS011;16776;50.958;10.994;2024-01-16T10:01:43;3.20;;;1.58;;
29906;SDS011;16776;50.958;10.994;2024-01-16T10:04:11;2.00;;;1.50;;
29906;SDS011;16776;50.958;10.994;2024-01-16T10:06:38;2.13;;;1.88;;
29906;SDS011;16776;50.958;10.994;2024-01-16T10:09:07;4.70;;;2.63;;
29906;SDS011;16776;50.958;10.994;2024-01-16T10:11:37;1.60;;;1.50;;
29906;SDS011;16776;50.958;10.994;2024-01-16T10:14:04;1.83;;;1.63;;
29906;SDS011;16776;50.958;10.994;2024-01-16T10:19:21;1.83;;;1.42;;
29906;SDS011;16776;50.958;10.994;2024-01-16T10:21:47;3.50;;;1.45;;
29906;SDS011;16776;50.958;10.994;2024-01-16T10:24:16;2.28;;;1.70;;
29906;SDS011;16776;50.958;10.994;2024-01-16T10:26:42;1.52;;;1.13;;
29906;SDS011;16776;50.958;10.994;2024-01-16T10:29:09;1.55;;;1.27;;
29906;SDS011;16776;50.958;10.994;2024-01-16T10:31:36;1.30;;;1.20;;
29906;SDS011;16776;50.958;10.994;2024-01-16T10:34:07;1.00;;;0.95;;
29906;SDS011;16776;50.958;10.994;2024-01-16T10:36:45;3.55;;;2.13;;
29906;SDS011;16776;50.958;10.994;2024-01-16T10:39:12;3.28;;;1.80;;
29906;SDS011;16776;50.958;10.994;2024-01-16T10:41:41;2.15;;;1.73;;
29906;SDS011;16776;50.958;10.994;2024-01-16T10:44:19;3.70;;;1.60;;
29906;SDS011;16776;50.958;10.994;2024-01-16T10:46:46;2.33;;;1.50;;
29906;SDS011;16776;50.958;10.994;2024-01-16T10:49:13;1.85;;;1.50;;
29906;SDS011;16776;50.958;10.994;2024-01-16T10:51:39;1.77;;;1.45;;
29906;SDS011;16776;50.958;10.994;2024-01-16T10:54:11;1.83;;;1.65;;
29906;SDS011;16776;50.958;10.994;2024-01-16T10:56:42;3.47;;;1.95;;
29906;SDS011;16776;50.958;10.994;2024-01-16T10:59:12;3.67;;;1.80;;
29906;SDS011;16776;50.958;10.994;2024-01-16T11:01:45;3.08;;;1.63;;
29906;SDS011;16776;50.958;10.994;2024-01-16T11:04:16;2.10;;;1.88;;
29906;SDS011;16776;50.958;10.994;2024-01-16T11:06:44;1.63;;;1.52;;
29906;SDS011;16776;50.958;10.994;2024-01-16T11:09:13;2.85;;;1.52;;
29906;SDS011;16776;50.958;10.994;2024-01-16T11:11:42;2.63;;;1.77;;
29906;SDS011;16776;50.958;10.994;2024-01-16T11:14:11;3.60;;;1.90;;
29906;SDS011;16776;50.958;10.994;2024-01-16T11:16:39;2.70;;;1.75;;
29906;SDS011;16776;50.958;10.994;2024-01-16T11:19:08;1.63;;;1.30;;
29906;SDS011;16776;50.958;10.994;2024-01-16T11:21:36;2.88;;;1.50;;
29906;SDS011;16776;50.958;10.994;2024-01-16T11:24:06;1.73;;;1.40;;
29906;SDS011;16776;50.958;10.994;2024-01-16T11:26:34;2.42;;;1.65;;
29906;SDS011;16776;50.958;10.994;2024-01-16T11:32:03;2.63;;;1.17;;
29906;SDS011;16776;50.958;10.994;2024-01-16T11:37:25;1.75;;;1.00;;
29906;SDS011;16776;50.958;10.994;2024-01-16T11:42:52;2.03;;;1.20;;
29906;SDS011;16776;50.958;10.994;2024-01-16T11:48:18;1.77;;;1.45;;
29906;SDS011;16776;50.958;10.994;2024-01-16T11:50:45;1.15;;;1.05;;
29906;SDS011;16776;50.958;10.994;2024-01-16T11:53:31;3.03;;;1.38;;
29906;SDS011;16776;50.958;10.994;2024-01-16T11:56:05;1.88;;;1.25;;
29906;SDS011;16776;50.958;10.994;2024-01-16T12:01:15;2.13;;;1.30;;
29906;SDS011;16776;50.958;10.994;2024-01-16T12:03:44;2.55;;;1.40;;
29906;SDS011;16776;50.958;10.994;2024-01-16T12:06:15;1.90;;;1.67;;
29906;SDS011;16776;50.958;10.994;2024-01-16T12:08:42;3.13;;;1.45;;
29906;SDS011;16776;50.958;10.994;2024-01-16T12:11:09;1.98;;;1.60;;
29906;SDS011;16776;50.958;10.994;2024-01-16T12:13:36;4.40;;;1.35;;
29906;SDS011;16776;50.958;10.994;2024-01-16T12:16:05;1.73;;;1.10;;
29906;SDS011;16776;50.958;10.994;2024-01-16T12:18:33;1.10;;;1.00;;
29906;SDS011;16776;50.958;10.994;2024-01-16T12:21:07;1.88;;;1.25;;
29906;SDS011;16776;50.958;10.994;2024-01-16T12:23:35;1.35;;;1.20;;
29906;SDS011;16776;50.958;10.994;2024-01-16T12:26:01;1.70;;;1.10;;
29906;SDS011;16776;50.958;10.994;2024-01-16T12:28:28;1.98;;;1.30;;
29906;SDS011;16776;50.958;10.994;2024-01-16T12:30:56;1.65;;;1.17;;
29906;SDS011;16776;50.958;10.994;2024-01-16T12:33:22;1.40;;;1.15;;
29906;SDS011;16776;50.958;10.994;2024-01-16T12:35:56;2.58;;;1.23;;
29906;SDS011;16776;50.958;10.994;2024-01-16T12:38:27;1.00;;;0.90;;
29906;SDS011;16776;50.958;10.994;2024-01-16T12:40:53;2.17;;;1.48;;
29906;SDS011;16776;50.958;10.994;2024-01-16T12:43:20;1.00;;;1.00;;
29906;SDS011;16776;50.958;10.994;2024-01-16T12:45:48;2.03;;;1.20;;
29906;SDS011;16776;50.958;10.994;2024-01-16T12:48:22;1.38;;;1.10;;
29906;SDS011;16776;50.958;10.994;2024-01-16T12:50:51;1.88;;;0.85;;
29906;SDS011;16776;50.958;10.994;2024-01-16T12:53:24;1.20;;;1.00;;
29906;SDS011;16776;50.958;10.994;2024-01-16T12:55:56;0.90;;;0.90;;
29906;SDS011;16776;50.958;10.994;2024-01-16T12:58:24;2.95;;;1.20;;
29906;SDS011;16776;50.958;10.994;2024-01-16T13:00:53;1.70;;;1.27;;
29906;SDS011;16776;50.958;10.994;2024-01-16T13:03:21;1.95;;;1.10;;
29906;SDS011;16776;50.958;10.994;2024-01-16T13:05:55;1.83;;;1.00;;
29906;SDS011;16776;50.958;10.994;2024-01-16T13:08:24;1.05;;;0.90;;
29906;SDS011;16776;50.958;10.994;2024-01-16T13:13:36;1.08;;;1.00;;
29906;SDS011;16776;50.958;10.994;2024-01-16T13:16:03;1.98;;;1.40;;
29906;SDS011;16776;50.958;10.994;2024-01-16T13:18:31;1.95;;;1.73;;
29906;SDS011;16776;50.958;10.994;2024-01-16T13:21:00;2.45;;;1.17;;
29906;SDS011;16776;50.958;10.994;2024-01-16T13:23:27;1.50;;;1.40;;
29906;SDS011;16776;50.958;10.994;2024-01-16T13:25:55;3.10;;;1.33;;
29906;SDS011;16776;50.958;10.994;2024-01-16T13:28:23;2.08;;;1.60;;
29906;SDS011;16776;50.958;10.994;2024-01-16T13:30:50;2.75;;;1.58;;
29906;SDS011;16776;50.958;10.994;2024-01-16T13:33:17;2.20;;;1.35;;
29906;SDS011;16776;50.958;10.994;2024-01-16T13:35:45;1.95;;;1.48;;
29906;SDS011;16776;50.958;10.994;2024-01-16T13:38:14;2.45;;;1.27;;
29906;SDS011;16776;50.958;10.994;2024-01-16T13:40:42;0.85;;;0.85;;
29906;SDS011;16776;50.958;10.994;2024-01-16T13:43:08;1.27;;;1.08;;
29906;SDS011;16776;50.958;10.994;2024-01-16T13:45:36;2.03;;;1.10;;
29906;SDS011;16776;50.958;10.994;2024-01-16T13:48:04;2.60;;;1.30;;
29906;SDS011;16776;50.958;10.994;2024-01-16T13:50:32;1.20;;;1.10;;
29906;SDS011;16776;50.958;10.994;2024-01-16T13:52:59;1.52;;;1.20;;
29906;SDS011;16776;50.958;10.994;2024-01-16T13:55:28;1.60;;;1.17;;
29906;SDS011;16776;50.958;10.994;2024-01-16T13:57:55;1.60;;;1.13;;
29906;SDS011;16776;50.958;10.994;2024-01-16T14:00:23;1.55;;;0.90;;
29906;SDS011;16776;50.958;10.994;2024-01-16T14:02:49;2.42;;;1.20;;
29906;SDS011;16776;50.958;10.994;2024-01-16T14:05:17;1.48;;;1.20;;
29906;SDS011;16776;50.958;10.994;2024-01-16T14:07:46;1.92;;;1.45;;
29906;SDS011;16776;50.958;10.994;2024-01-16T14:10:15;1.92;;;1.50;;
29906;SDS011;16776;50.958;10.994;2024-01-16T14:12:45;2.25;;;1.00;;
29906;SDS011;16776;50.958;10.994;2024-01-16T14:15:13;1.33;;;1.20;;
29906;SDS011;16776;50.958;10.994;2024-01-16T14:17:46;1.83;;;0.80;;
29906;SDS011;16776;50.958;10.994;2024-01-16T14:20:13;2.40;;;1.17;;
29906;SDS011;16776;50.958;10.994;2024-01-16T14:22:41;1.65;;;1.25;;
29906;SDS011;16776;50.958;10.994;2024-01-16T14:25:09;1.90;;;1.70;;
29906;SDS011;16776;50.958;10.994;2024-01-16T14:27:37;3.08;;;1.65;;
29906;SDS011;16776;50.958;10.994;2024-01-16T14:30:07;2.33;;;1.73;;
29906;SDS011;16776;50.958;10.994;2024-01-16T14:32:36;3.78;;;2.00;;
29906;SDS011;16776;50.958;10.994;2024-01-16T14:35:04;2.83;;;1.88;;
29906;SDS011;16776;50.958;10.994;2024-01-16T14:37:31;2.17;;;1.83;;
29906;SDS011;16776;50.958;10.994;2024-01-16T14:39:58;2.90;;;1.77;;
29906;SDS011;16776;50.958;10.994;2024-01-16T14:42:26;1.92;;;1.67;;
29906;SDS011;16776;50.958;10.994;2024-01-16T14:44:53;1.92;;;1.50;;
29906;SDS011;16776;50.958;10.994;2024-01-16T14:47:21;2.42;;;1.77;;
29906;SDS011;16776;50.958;10.994;2024-01-16T14:49:49;3.72;;;2.20;;
29906;SDS011;16776;50.958;10.994;2024-01-16T14:52:15;2.33;;;1.80;;
29906;SDS011;16776;50.958;10.994;2024-01-16T14:54:43;1.92;;;1.60;;